sensor_id;sensor_type;location;lat;lon;timestamp;temperature;humidity
6986;DHT22;3533;51.246;6.850;2023-07-22T00:00:25;24.00;45.10
6986;DHT22;3533;51.246;6.850;2023-07-22T00:02:51;24.00;45.10
6986;DHT22;3533;51.246;6.850;2023-07-22T00:05:17;24.00;45.10
6986;DHT22;3533;51.246;6.850;2023-07-22T00:07:48;24.00;45.10
6986;DHT22;3533;51.246;6.850;2023-07-22T00:10:14;24.00;45.10
6986;DHT22;3533;51.246;6.850;2023-07-22T00:12:39;24.00;45.10
6986;DHT22;3533;51.246;6.850;2023-07-22T00:15:05;24.00;45.10
6986;DHT22;3533;51.246;6.850;2023-07-22T00:17:31;24.00;45.10
6986;DHT22;3533;51.246;6.850;2023-07-22T00:19:57;24.00;45.10
6986;DHT22;3533;51.246;6.850;2023-07-22T00:22:22;24.00;45.10
6986;DHT22;3533;51.246;6.850;2023-07-22T00:24:48;24.00;45.10
6986;DHT22;3533;51.246;6.850;2023-07-22T00:27:14;24.00;45.10
6986;DHT22;3533;51.246;6.850;2023-07-22T00:29:40;24.00;45.10
6986;DHT22;3533;51.246;6.850;2023-07-22T00:32:07;24.00;45.10
6986;DHT22;3533;51.246;6.850;2023-07-22T00:34:34;24.00;45.90
6986;DHT22;3533;51.246;6.850;2023-07-22T00:36:59;24.00;45.10
6986;DHT22;3533;51.246;6.850;2023-07-22T00:39:25;24.00;45.10
6986;DHT22;3533;51.246;6.850;2023-07-22T00:41:50;24.00;45.10
6986;DHT22;3533;51.246;6.850;2023-07-22T00:44:16;24.00;45.10
6986;DHT22;3533;51.246;6.850;2023-07-22T00:46:41;24.00;45.10
6986;DHT22;3533;51.246;6.850;2023-07-22T00:49:08;24.00;45.10
6986;DHT22;3533;51.246;6.850;2023-07-22T00:51:34;24.00;45.10
6986;DHT22;3533;51.246;6.850;2023-07-22T00:53:59;24.00;45.10
6986;DHT22;3533;51.246;6.850;2023-07-22T00:56:25;24.00;45.10
6986;DHT22;3533;51.246;6.850;2023-07-22T00:58:51;24.00;45.00
6986;DHT22;3533;51.246;6.850;2023-07-22T01:01:17;24.00;45.10
6986;DHT22;3533;51.246;6.850;2023-07-22T01:03:43;24.00;45.10
6986;DHT22;3533;51.246;6.850;2023-07-22T01:06:09;24.00;45.10
6986;DHT22;3533;51.246;6.850;2023-07-22T01:08:35;24.00;45.10
6986;DHT22;3533;51.246;6.850;2023-07-22T01:11:01;24.00;45.10
6986;DHT22;3533;51.246;6.850;2023-07-22T01:13:26;24.00;45.10
6986;DHT22;3533;51.246;6.850;2023-07-22T01:15:52;24.00;45.10
6986;DHT22;3533;51.246;6.850;2023-07-22T01:18:18;24.00;45.00
6986;DHT22;3533;51.246;6.850;2023-07-22T01:20:45;24.00;45.10
6986;DHT22;3533;51.246;6.850;2023-07-22T01:23:11;24.00;45.10
6986;DHT22;3533;51.246;6.850;2023-07-22T01:25:37;24.00;45.00
6986;DHT22;3533;51.246;6.850;2023-07-22T01:28:02;24.00;45.00
6986;DHT22;3533;51.246;6.850;2023-07-22T01:30:28;24.00;45.00
6986;DHT22;3533;51.246;6.850;2023-07-22T01:32:54;24.00;45.80
6986;DHT22;3533;51.246;6.850;2023-07-22T01:35:19;24.00;45.00
6986;DHT22;3533;51.246;6.850;2023-07-22T01:37:46;24.00;45.00
6986;DHT22;3533;51.246;6.850;2023-07-22T01:40:11;24.00;45.10
6986;DHT22;3533;51.246;6.850;2023-07-22T01:42:41;24.00;45.00
6986;DHT22;3533;51.246;6.850;2023-07-22T01:45:08;24.00;45.00
6986;DHT22;3533;51.246;6.850;2023-07-22T01:47:34;24.00;45.00
6986;DHT22;3533;51.246;6.850;2023-07-22T01:50:01;24.00;45.00
6986;DHT22;3533;51.246;6.850;2023-07-22T01:52:27;24.00;45.00
6986;DHT22;3533;51.246;6.850;2023-07-22T01:54:52;24.00;45.00
6986;DHT22;3533;51.246;6.850;2023-07-22T01:57:18;24.00;45.00
6986;DHT22;3533;51.246;6.850;2023-07-22T01:59:43;24.00;45.00
6986;DHT22;3533;51.246;6.850;2023-07-22T02:02:09;24.00;45.00
6986;DHT22;3533;51.246;6.850;2023-07-22T02:04:35;24.00;45.00
6986;DHT22;3533;51.246;6.850;2023-07-22T02:07:00;24.00;45.00
6986;DHT22;3533;51.246;6.850;2023-07-22T02:09:26;24.00;45.00
6986;DHT22;3533;51.246;6.850;2023-07-22T02:11:52;24.00;45.00
6986;DHT22;3533;51.246;6.850;2023-07-22T02:14:19;24.00;45.00
6986;DHT22;3533;51.246;6.850;2023-07-22T02:16:44;24.00;45.00
6986;DHT22;3533;51.246;6.850;2023-07-22T02:19:10;24.00;45.00
6986;DHT22;3533;51.246;6.850;2023-07-22T02:21:36;24.00;44.90
6986;DHT22;3533;51.246;6.850;2023-07-22T02:24:01;24.00;44.90
6986;DHT22;3533;51.246;6.850;2023-07-22T02:26:27;24.00;45.00
6986;DHT22;3533;51.246;6.850;2023-07-22T02:28:52;24.00;44.90
6986;DHT22;3533;51.246;6.850;2023-07-22T02:31:18;24.00;44.90
6986;DHT22;3533;51.246;6.850;2023-07-22T02:33:43;24.00;44.90
6986;DHT22;3533;51.246;6.850;2023-07-22T02:36:09;24.00;44.90
6986;DHT22;3533;51.246;6.850;2023-07-22T02:38:34;24.00;45.00
6986;DHT22;3533;51.246;6.850;2023-07-22T02:41:04;24.00;45.70
6986;DHT22;3533;51.246;6.850;2023-07-22T02:43:32;24.00;44.90
6986;DHT22;3533;51.246;6.850;2023-07-22T02:45:59;24.00;44.90
6986;DHT22;3533;51.246;6.850;2023-07-22T02:48:25;24.00;44.90
6986;DHT22;3533;51.246;6.850;2023-07-22T02:50:50;24.00;44.90
6986;DHT22;3533;51.246;6.850;2023-07-22T02:53:16;24.00;44.90
6986;DHT22;3533;51.246;6.850;2023-07-22T02:55:41;24.00;44.90
6986;DHT22;3533;51.246;6.850;2023-07-22T02:58:07;24.00;44.90
6986;DHT22;3533;51.246;6.850;2023-07-22T03:00:32;24.00;44.90
6986;DHT22;3533;51.246;6.850;2023-07-22T03:02:58;24.00;44.90
6986;DHT22;3533;51.246;6.850;2023-07-22T03:05:26;24.00;44.90
6986;DHT22;3533;51.246;6.850;2023-07-22T03:07:53;24.00;45.00
6986;DHT22;3533;51.246;6.850;2023-07-22T03:10:19;24.00;44.90
6986;DHT22;3533;51.246;6.850;2023-07-22T03:12:44;24.00;44.90
6986;DHT22;3533;51.246;6.850;2023-07-22T03:15:10;24.00;45.00
6986;DHT22;3533;51.246;6.850;2023-07-22T03:17:38;24.00;44.90
6986;DHT22;3533;51.246;6.850;2023-07-22T03:20:05;24.00;45.00
6986;DHT22;3533;51.246;6.850;2023-07-22T03:22:34;24.00;44.90
6986;DHT22;3533;51.246;6.850;2023-07-22T03:24:59;24.00;44.90
6986;DHT22;3533;51.246;6.850;2023-07-22T03:27:25;24.00;44.90
6986;DHT22;3533;51.246;6.850;2023-07-22T03:29:50;24.00;44.90
6986;DHT22;3533;51.246;6.850;2023-07-22T03:32:16;24.00;45.00
6986;DHT22;3533;51.246;6.850;2023-07-22T03:34:41;24.00;44.90
6986;DHT22;3533;51.246;6.850;2023-07-22T03:37:07;24.00;44.90
6986;DHT22;3533;51.246;6.850;2023-07-22T03:39:32;24.00;45.00
6986;DHT22;3533;51.246;6.850;2023-07-22T03:41:58;24.00;44.90
6986;DHT22;3533;51.246;6.850;2023-07-22T03:44:23;24.00;44.90
6986;DHT22;3533;51.246;6.850;2023-07-22T03:46:49;24.00;45.80
6986;DHT22;3533;51.246;6.850;2023-07-22T03:49:15;24.00;45.00
6986;DHT22;3533;51.246;6.850;2023-07-22T03:51:40;24.00;44.90
6986;DHT22;3533;51.246;6.850;2023-07-22T03:54:06;24.00;45.00
6986;DHT22;3533;51.246;6.850;2023-07-22T03:56:31;24.00;45.00
6986;DHT22;3533;51.246;6.850;2023-07-22T03:58:57;24.00;44.90
6986;DHT22;3533;51.246;6.850;2023-07-22T04:01:22;24.00;45.00
6986;DHT22;3533;51.246;6.850;2023-07-22T04:03:48;24.00;45.00
6986;DHT22;3533;51.246;6.850;2023-07-22T04:06:13;24.00;45.00
6986;DHT22;3533;51.246;6.850;2023-07-22T04:08:39;23.90;44.80
6986;DHT22;3533;51.246;6.850;2023-07-22T04:11:04;24.00;44.90
6986;DHT22;3533;51.246;6.850;2023-07-22T04:13:30;24.00;44.90
6986;DHT22;3533;51.246;6.850;2023-07-22T04:15:55;24.00;44.90
6986;DHT22;3533;51.246;6.850;2023-07-22T04:18:21;24.00;45.70
6986;DHT22;3533;51.246;6.850;2023-07-22T04:20:47;24.00;44.90
6986;DHT22;3533;51.246;6.850;2023-07-22T04:23:16;23.90;44.80
6986;DHT22;3533;51.246;6.850;2023-07-22T04:25:43;24.00;44.90
6986;DHT22;3533;51.246;6.850;2023-07-22T04:28:09;24.00;44.90
6986;DHT22;3533;51.246;6.850;2023-07-22T04:30:35;23.90;44.80
6986;DHT22;3533;51.246;6.850;2023-07-22T04:33:02;23.90;44.80
6986;DHT22;3533;51.246;6.850;2023-07-22T04:35:31;23.90;44.80
6986;DHT22;3533;51.246;6.850;2023-07-22T04:37:56;24.00;44.90
6986;DHT22;3533;51.246;6.850;2023-07-22T04:40:22;24.00;44.90
6986;DHT22;3533;51.246;6.850;2023-07-22T04:42:50;24.00;44.90
6986;DHT22;3533;51.246;6.850;2023-07-22T04:45:16;24.00;44.90
6986;DHT22;3533;51.246;6.850;2023-07-22T04:47:43;24.00;44.90
6986;DHT22;3533;51.246;6.850;2023-07-22T04:50:12;24.00;44.90
6986;DHT22;3533;51.246;6.850;2023-07-22T04:52:38;24.00;44.90
6986;DHT22;3533;51.246;6.850;2023-07-22T04:55:04;24.00;44.80
6986;DHT22;3533;51.246;6.850;2023-07-22T04:57:35;24.00;44.80
6986;DHT22;3533;51.246;6.850;2023-07-22T05:00:04;24.00;44.80
6986;DHT22;3533;51.246;6.850;2023-07-22T05:02:30;24.00;44.80
6986;DHT22;3533;51.246;6.850;2023-07-22T05:04:56;24.00;44.80
6986;DHT22;3533;51.246;6.850;2023-07-22T05:07:22;24.00;44.80
6986;DHT22;3533;51.246;6.850;2023-07-22T05:09:48;24.00;44.80
6986;DHT22;3533;51.246;6.850;2023-07-22T05:12:14;24.00;44.80
6986;DHT22;3533;51.246;6.850;2023-07-22T05:14:39;24.00;44.80
6986;DHT22;3533;51.246;6.850;2023-07-22T05:17:05;24.00;44.80
6986;DHT22;3533;51.246;6.850;2023-07-22T05:19:31;24.00;44.70
6986;DHT22;3533;51.246;6.850;2023-07-22T05:21:56;24.00;44.80
6986;DHT22;3533;51.246;6.850;2023-07-22T05:24:22;24.00;44.80
6986;DHT22;3533;51.246;6.850;2023-07-22T05:26:47;24.00;44.80
6986;DHT22;3533;51.246;6.850;2023-07-22T05:29:13;24.00;44.80
6986;DHT22;3533;51.246;6.850;2023-07-22T05:31:38;24.00;44.80
6986;DHT22;3533;51.246;6.850;2023-07-22T05:34:04;24.00;44.80
6986;DHT22;3533;51.246;6.850;2023-07-22T05:36:30;24.00;44.70
6986;DHT22;3533;51.246;6.850;2023-07-22T05:38:55;24.00;44.80
6986;DHT22;3533;51.246;6.850;2023-07-22T05:41:22;24.00;44.80
6986;DHT22;3533;51.246;6.850;2023-07-22T05:43:48;24.00;44.70
6986;DHT22;3533;51.246;6.850;2023-07-22T05:46:13;24.00;44.70
6986;DHT22;3533;51.246;6.850;2023-07-22T05:48:39;24.00;44.70
6986;DHT22;3533;51.246;6.850;2023-07-22T05:51:04;24.00;44.70
6986;DHT22;3533;51.246;6.850;2023-07-22T05:53:32;24.00;44.70
6986;DHT22;3533;51.246;6.850;2023-07-22T05:55:57;24.00;44.70
6986;DHT22;3533;51.246;6.850;2023-07-22T05:58:23;24.00;44.70
6986;DHT22;3533;51.246;6.850;2023-07-22T06:00:48;24.00;44.70
6986;DHT22;3533;51.246;6.850;2023-07-22T06:03:14;24.00;44.70
6986;DHT22;3533;51.246;6.850;2023-07-22T06:05:40;24.00;44.70
6986;DHT22;3533;51.246;6.850;2023-07-22T06:08:05;24.00;44.70
6986;DHT22;3533;51.246;6.850;2023-07-22T06:10:32;24.00;44.70
6986;DHT22;3533;51.246;6.850;2023-07-22T06:12:57;24.00;44.80
6986;DHT22;3533;51.246;6.850;2023-07-22T06:15:23;24.10;44.90
6986;DHT22;3533;51.246;6.850;2023-07-22T06:17:48;24.00;44.70
6986;DHT22;3533;51.246;6.850;2023-07-22T06:20:14;24.00;44.80
6986;DHT22;3533;51.246;6.850;2023-07-22T06:22:39;24.00;44.70
6986;DHT22;3533;51.246;6.850;2023-07-22T06:25:06;24.00;44.70
6986;DHT22;3533;51.246;6.850;2023-07-22T06:27:32;24.00;44.70
6986;DHT22;3533;51.246;6.850;2023-07-22T06:29:58;24.00;44.70
6986;DHT22;3533;51.246;6.850;2023-07-22T06:32:23;24.00;44.70
6986;DHT22;3533;51.246;6.850;2023-07-22T06:34:49;24.00;44.70
6986;DHT22;3533;51.246;6.850;2023-07-22T06:37:15;24.00;44.70
6986;DHT22;3533;51.246;6.850;2023-07-22T06:39:40;24.00;44.60
6986;DHT22;3533;51.246;6.850;2023-07-22T06:42:06;24.00;44.70
6986;DHT22;3533;51.246;6.850;2023-07-22T06:44:31;24.00;44.70
6986;DHT22;3533;51.246;6.850;2023-07-22T06:47:00;24.00;44.60
6986;DHT22;3533;51.246;6.850;2023-07-22T06:49:25;24.00;44.70
6986;DHT22;3533;51.246;6.850;2023-07-22T06:51:51;24.00;44.70
6986;DHT22;3533;51.246;6.850;2023-07-22T06:54:17;24.00;44.60
6986;DHT22;3533;51.246;6.850;2023-07-22T06:56:42;24.00;44.70
6986;DHT22;3533;51.246;6.850;2023-07-22T06:59:08;24.00;44.60
6986;DHT22;3533;51.246;6.850;2023-07-22T07:01:34;24.00;44.60
6986;DHT22;3533;51.246;6.850;2023-07-22T07:03:59;24.00;44.60
6986;DHT22;3533;51.246;6.850;2023-07-22T07:06:25;24.00;44.60
6986;DHT22;3533;51.246;6.850;2023-07-22T07:08:50;24.10;44.70
6986;DHT22;3533;51.246;6.850;2023-07-22T07:11:16;24.10;44.70
6986;DHT22;3533;51.246;6.850;2023-07-22T07:13:41;24.00;44.60
6986;DHT22;3533;51.246;6.850;2023-07-22T07:16:24;24.10;44.70
6986;DHT22;3533;51.246;6.850;2023-07-22T07:18:50;24.10;44.70
6986;DHT22;3533;51.246;6.850;2023-07-22T07:21:17;24.00;44.60
6986;DHT22;3533;51.246;6.850;2023-07-22T07:23:43;24.10;44.70
6986;DHT22;3533;51.246;6.850;2023-07-22T07:26:08;24.10;44.80
6986;DHT22;3533;51.246;6.850;2023-07-22T07:28:34;24.10;44.70
6986;DHT22;3533;51.246;6.850;2023-07-22T07:30:59;24.10;44.70
6986;DHT22;3533;51.246;6.850;2023-07-22T07:33:25;24.00;44.60
6986;DHT22;3533;51.246;6.850;2023-07-22T07:35:51;24.00;44.60
6986;DHT22;3533;51.246;6.850;2023-07-22T07:38:16;24.10;44.60
6986;DHT22;3533;51.246;6.850;2023-07-22T07:40:42;24.10;44.70
6986;DHT22;3533;51.246;6.850;2023-07-22T07:43:08;24.10;44.60
6986;DHT22;3533;51.246;6.850;2023-07-22T07:45:37;24.10;44.70
6986;DHT22;3533;51.246;6.850;2023-07-22T07:48:03;24.00;44.60
6986;DHT22;3533;51.246;6.850;2023-07-22T07:50:29;24.10;44.70
6986;DHT22;3533;51.246;6.850;2023-07-22T07:52:55;24.00;44.50
6986;DHT22;3533;51.246;6.850;2023-07-22T07:55:20;24.10;44.60
6986;DHT22;3533;51.246;6.850;2023-07-22T07:57:46;24.00;44.50
6986;DHT22;3533;51.246;6.850;2023-07-22T08:00:11;24.10;44.60
6986;DHT22;3533;51.246;6.850;2023-07-22T08:02:37;24.00;44.60
6986;DHT22;3533;51.246;6.850;2023-07-22T08:05:03;24.10;44.60
6986;DHT22;3533;51.246;6.850;2023-07-22T08:07:28;24.10;44.60
6986;DHT22;3533;51.246;6.850;2023-07-22T08:09:54;24.10;44.60
6986;DHT22;3533;51.246;6.850;2023-07-22T08:12:19;24.10;44.70
6986;DHT22;3533;51.246;6.850;2023-07-22T08:14:45;24.10;44.60
6986;DHT22;3533;51.246;6.850;2023-07-22T08:17:11;24.00;44.50
6986;DHT22;3533;51.246;6.850;2023-07-22T08:19:36;24.10;44.60
6986;DHT22;3533;51.246;6.850;2023-07-22T08:22:02;24.10;44.60
6986;DHT22;3533;51.246;6.850;2023-07-22T08:24:27;24.10;44.60
6986;DHT22;3533;51.246;6.850;2023-07-22T08:26:53;24.10;44.60
6986;DHT22;3533;51.246;6.850;2023-07-22T08:29:19;24.10;44.60
6986;DHT22;3533;51.246;6.850;2023-07-22T08:31:44;24.10;44.60
6986;DHT22;3533;51.246;6.850;2023-07-22T08:34:09;24.10;44.60
6986;DHT22;3533;51.246;6.850;2023-07-22T08:36:35;24.10;44.60
6986;DHT22;3533;51.246;6.850;2023-07-22T08:39:01;24.10;44.60
6986;DHT22;3533;51.246;6.850;2023-07-22T08:41:28;24.00;44.50
6986;DHT22;3533;51.246;6.850;2023-07-22T08:43:56;24.10;44.50
6986;DHT22;3533;51.246;6.850;2023-07-22T08:46:28;24.10;44.50
6986;DHT22;3533;51.246;6.850;2023-07-22T08:48:56;24.10;44.50
6986;DHT22;3533;51.246;6.850;2023-07-22T08:51:22;24.10;44.50
6986;DHT22;3533;51.246;6.850;2023-07-22T08:53:49;24.10;44.50
6986;DHT22;3533;51.246;6.850;2023-07-22T08:56:16;24.10;44.50
6986;DHT22;3533;51.246;6.850;2023-07-22T08:58:42;24.10;44.50
6986;DHT22;3533;51.246;6.850;2023-07-22T09:01:08;24.10;44.50
6986;DHT22;3533;51.246;6.850;2023-07-22T09:03:34;24.10;44.50
6986;DHT22;3533;51.246;6.850;2023-07-22T09:06:00;24.10;44.50
6986;DHT22;3533;51.246;6.850;2023-07-22T09:08:26;24.00;44.30
6986;DHT22;3533;51.246;6.850;2023-07-22T09:10:53;24.10;44.50
6986;DHT22;3533;51.246;6.850;2023-07-22T09:13:19;24.10;44.50
6986;DHT22;3533;51.246;6.850;2023-07-22T09:15:46;24.10;44.40
6986;DHT22;3533;51.246;6.850;2023-07-22T09:18:13;24.10;44.40
6986;DHT22;3533;51.246;6.850;2023-07-22T09:20:40;24.10;44.50
6986;DHT22;3533;51.246;6.850;2023-07-22T09:23:07;24.10;44.40
6986;DHT22;3533;51.246;6.850;2023-07-22T09:25:32;24.10;44.40
6986;DHT22;3533;51.246;6.850;2023-07-22T09:27:59;24.10;45.20
6986;DHT22;3533;51.246;6.850;2023-07-22T09:30:38;24.10;44.50
6986;DHT22;3533;51.246;6.850;2023-07-22T09:33:05;24.10;44.30
6986;DHT22;3533;51.246;6.850;2023-07-22T09:35:47;24.10;44.50
6986;DHT22;3533;51.246;6.850;2023-07-22T09:38:13;24.10;44.30
6986;DHT22;3533;51.246;6.850;2023-07-22T09:40:41;24.10;44.30
6986;DHT22;3533;51.246;6.850;2023-07-22T09:43:10;24.10;44.30
6986;DHT22;3533;51.246;6.850;2023-07-22T09:45:35;24.10;44.30
6986;DHT22;3533;51.246;6.850;2023-07-22T09:48:03;24.10;44.20
6986;DHT22;3533;51.246;6.850;2023-07-22T09:50:29;24.10;44.30
6986;DHT22;3533;51.246;6.850;2023-07-22T09:52:56;24.10;44.30
6986;DHT22;3533;51.246;6.850;2023-07-22T09:55:28;24.10;44.30
6986;DHT22;3533;51.246;6.850;2023-07-22T09:58:04;24.10;44.30
6986;DHT22;3533;51.246;6.850;2023-07-22T10:00:35;24.10;44.30
6986;DHT22;3533;51.246;6.850;2023-07-22T10:03:03;24.10;44.30
6986;DHT22;3533;51.246;6.850;2023-07-22T10:05:33;24.10;44.30
6986;DHT22;3533;51.246;6.850;2023-07-22T10:08:02;24.10;44.30
6986;DHT22;3533;51.246;6.850;2023-07-22T10:10:35;24.10;44.30
6986;DHT22;3533;51.246;6.850;2023-07-22T10:13:03;24.10;44.20
6986;DHT22;3533;51.246;6.850;2023-07-22T10:15:30;24.10;44.30
6986;DHT22;3533;51.246;6.850;2023-07-22T10:17:57;24.10;44.20
6986;DHT22;3533;51.246;6.850;2023-07-22T10:20:23;24.10;45.00
6986;DHT22;3533;51.246;6.850;2023-07-22T10:22:49;24.10;44.20
6986;DHT22;3533;51.246;6.850;2023-07-22T10:25:20;24.10;44.20
6986;DHT22;3533;51.246;6.850;2023-07-22T10:27:47;24.10;44.20
6986;DHT22;3533;51.246;6.850;2023-07-22T10:30:16;24.10;44.20
6986;DHT22;3533;51.246;6.850;2023-07-22T10:32:47;24.10;44.20
6986;DHT22;3533;51.246;6.850;2023-07-22T10:35:34;24.10;44.10
6986;DHT22;3533;51.246;6.850;2023-07-22T10:38:13;24.10;44.10
6986;DHT22;3533;51.246;6.850;2023-07-22T10:40:46;24.10;44.10
6986;DHT22;3533;51.246;6.850;2023-07-22T10:43:15;24.10;44.10
6986;DHT22;3533;51.246;6.850;2023-07-22T10:45:50;24.10;44.10
6986;DHT22;3533;51.246;6.850;2023-07-22T10:48:16;24.10;44.10
6986;DHT22;3533;51.246;6.850;2023-07-22T10:50:53;24.10;44.10
6986;DHT22;3533;51.246;6.850;2023-07-22T11:11:54;24.10;44.10
6986;DHT22;3533;51.246;6.850;2023-07-22T11:14:24;24.20;44.20
6986;DHT22;3533;51.246;6.850;2023-07-22T11:16:51;24.10;44.10
6986;DHT22;3533;51.246;6.850;2023-07-22T11:19:18;24.10;44.10
6986;DHT22;3533;51.246;6.850;2023-07-22T11:21:45;24.10;44.10
6986;DHT22;3533;51.246;6.850;2023-07-22T11:24:11;24.20;44.20
6986;DHT22;3533;51.246;6.850;2023-07-22T11:26:37;24.10;44.10
6986;DHT22;3533;51.246;6.850;2023-07-22T11:29:05;24.10;44.10
6986;DHT22;3533;51.246;6.850;2023-07-22T11:31:35;24.10;44.10
6986;DHT22;3533;51.246;6.850;2023-07-22T11:34:08;24.10;44.10
6986;DHT22;3533;51.246;6.850;2023-07-22T11:36:34;24.10;44.10
6986;DHT22;3533;51.246;6.850;2023-07-22T11:39:05;24.10;44.10
6986;DHT22;3533;51.246;6.850;2023-07-22T11:41:32;24.10;44.10
6986;DHT22;3533;51.246;6.850;2023-07-22T11:43:58;24.10;44.00
6986;DHT22;3533;51.246;6.850;2023-07-22T11:46:25;24.10;44.00
6986;DHT22;3533;51.246;6.850;2023-07-22T11:48:52;24.10;44.00
6986;DHT22;3533;51.246;6.850;2023-07-22T11:51:20;24.10;44.10
6986;DHT22;3533;51.246;6.850;2023-07-22T11:53:50;24.10;44.00
6986;DHT22;3533;51.246;6.850;2023-07-22T11:56:24;24.10;44.10
6986;DHT22;3533;51.246;6.850;2023-07-22T11:58:56;24.20;44.10
6986;DHT22;3533;51.246;6.850;2023-07-22T12:01:23;24.10;44.10
6986;DHT22;3533;51.246;6.850;2023-07-22T12:03:49;24.10;44.80
6986;DHT22;3533;51.246;6.850;2023-07-22T12:06:20;24.10;44.10
6986;DHT22;3533;51.246;6.850;2023-07-22T12:08:48;24.10;44.00
6986;DHT22;3533;51.246;6.850;2023-07-22T12:11:24;24.10;44.00
6986;DHT22;3533;51.246;6.850;2023-07-22T12:16:30;24.20;44.10
6986;DHT22;3533;51.246;6.850;2023-07-22T12:18:55;24.10;44.10
6986;DHT22;3533;51.246;6.850;2023-07-22T12:21:21;24.10;44.00
6986;DHT22;3533;51.246;6.850;2023-07-22T12:23:47;24.10;44.00
6986;DHT22;3533;51.246;6.850;2023-07-22T12:26:13;24.10;44.80
6986;DHT22;3533;51.246;6.850;2023-07-22T12:28:38;24.10;44.00
6986;DHT22;3533;51.246;6.850;2023-07-22T12:31:04;24.10;44.00
6986;DHT22;3533;51.246;6.850;2023-07-22T12:33:29;24.10;44.00
6986;DHT22;3533;51.246;6.850;2023-07-22T12:35:57;24.10;44.00
6986;DHT22;3533;51.246;6.850;2023-07-22T12:38:23;24.10;44.00
6986;DHT22;3533;51.246;6.850;2023-07-22T12:40:48;24.10;44.00
6986;DHT22;3533;51.246;6.850;2023-07-22T12:43:14;24.10;43.90
6986;DHT22;3533;51.246;6.850;2023-07-22T12:45:39;24.10;44.00
6986;DHT22;3533;51.246;6.850;2023-07-22T12:48:05;24.10;43.90
6986;DHT22;3533;51.246;6.850;2023-07-22T12:50:32;24.10;44.00
6986;DHT22;3533;51.246;6.850;2023-07-22T12:52:58;24.10;43.90
6986;DHT22;3533;51.246;6.850;2023-07-22T12:55:24;24.10;44.00
6986;DHT22;3533;51.246;6.850;2023-07-22T12:57:50;24.10;43.90
6986;DHT22;3533;51.246;6.850;2023-07-22T13:00:15;24.10;44.00
6986;DHT22;3533;51.246;6.850;2023-07-22T13:02:41;24.10;44.00
6986;DHT22;3533;51.246;6.850;2023-07-22T13:05:06;24.10;43.90
6986;DHT22;3533;51.246;6.850;2023-07-22T13:07:32;24.10;44.00
6986;DHT22;3533;51.246;6.850;2023-07-22T13:10:02;24.10;44.00
6986;DHT22;3533;51.246;6.850;2023-07-22T13:12:32;24.10;43.90
6986;DHT22;3533;51.246;6.850;2023-07-22T13:14:57;24.10;44.00
6986;DHT22;3533;51.246;6.850;2023-07-22T13:17:23;24.10;43.90
6986;DHT22;3533;51.246;6.850;2023-07-22T13:19:48;24.10;44.00
6986;DHT22;3533;51.246;6.850;2023-07-22T13:22:14;24.10;44.00
6986;DHT22;3533;51.246;6.850;2023-07-22T13:24:39;24.10;43.90
6986;DHT22;3533;51.246;6.850;2023-07-22T13:27:06;24.10;44.00
6986;DHT22;3533;51.246;6.850;2023-07-22T13:29:32;24.10;43.90
6986;DHT22;3533;51.246;6.850;2023-07-22T13:31:57;24.10;43.90
6986;DHT22;3533;51.246;6.850;2023-07-22T13:34:23;24.10;43.90
6986;DHT22;3533;51.246;6.850;2023-07-22T13:36:49;24.10;44.00
6986;DHT22;3533;51.246;6.850;2023-07-22T13:39:15;24.10;43.90
6986;DHT22;3533;51.246;6.850;2023-07-22T13:41:40;24.10;43.90
6986;DHT22;3533;51.246;6.850;2023-07-22T13:44:06;24.10;43.90
6986;DHT22;3533;51.246;6.850;2023-07-22T13:46:31;24.10;43.90
6986;DHT22;3533;51.246;6.850;2023-07-22T13:48:57;24.10;43.90
6986;DHT22;3533;51.246;6.850;2023-07-22T13:51:22;24.10;43.90
6986;DHT22;3533;51.246;6.850;2023-07-22T13:53:48;24.10;43.90
6986;DHT22;3533;51.246;6.850;2023-07-22T13:56:14;24.10;43.90
6986;DHT22;3533;51.246;6.850;2023-07-22T13:58:39;24.10;43.90
6986;DHT22;3533;51.246;6.850;2023-07-22T14:01:05;24.10;43.90
6986;DHT22;3533;51.246;6.850;2023-07-22T14:03:30;24.10;43.90
6986;DHT22;3533;51.246;6.850;2023-07-22T14:05:56;24.10;43.90
6986;DHT22;3533;51.246;6.850;2023-07-22T14:08:22;24.10;43.90
6986;DHT22;3533;51.246;6.850;2023-07-22T14:10:47;24.10;43.90
6986;DHT22;3533;51.246;6.850;2023-07-22T14:13:13;24.10;43.90
6986;DHT22;3533;51.246;6.850;2023-07-22T14:15:38;24.10;43.80
6986;DHT22;3533;51.246;6.850;2023-07-22T14:18:04;24.10;43.90
6986;DHT22;3533;51.246;6.850;2023-07-22T14:20:30;24.10;43.90
6986;DHT22;3533;51.246;6.850;2023-07-22T14:22:56;24.10;43.90
6986;DHT22;3533;51.246;6.850;2023-07-22T14:25:22;24.10;43.90
6986;DHT22;3533;51.246;6.850;2023-07-22T14:27:48;24.10;43.90
6986;DHT22;3533;51.246;6.850;2023-07-22T14:30:13;24.10;43.90
6986;DHT22;3533;51.246;6.850;2023-07-22T14:32:39;24.10;43.90
6986;DHT22;3533;51.246;6.850;2023-07-22T14:35:05;24.10;44.00
6986;DHT22;3533;51.246;6.850;2023-07-22T14:37:30;24.10;43.90
6986;DHT22;3533;51.246;6.850;2023-07-22T14:39:56;24.10;43.90
6986;DHT22;3533;51.246;6.850;2023-07-22T14:42:22;24.10;43.90
6986;DHT22;3533;51.246;6.850;2023-07-22T14:44:47;24.10;43.90
6986;DHT22;3533;51.246;6.850;2023-07-22T14:47:13;24.10;43.90
6986;DHT22;3533;51.246;6.850;2023-07-22T14:49:38;24.10;43.90
6986;DHT22;3533;51.246;6.850;2023-07-22T14:52:04;24.10;43.90
6986;DHT22;3533;51.246;6.850;2023-07-22T14:54:29;24.10;43.90
6986;DHT22;3533;51.246;6.850;2023-07-22T14:56:55;24.10;43.90
6986;DHT22;3533;51.246;6.850;2023-07-22T14:59:20;24.10;43.90
6986;DHT22;3533;51.246;6.850;2023-07-22T15:01:46;24.10;43.90
6986;DHT22;3533;51.246;6.850;2023-07-22T15:04:11;24.10;43.90
6986;DHT22;3533;51.246;6.850;2023-07-22T15:06:37;24.10;43.90
6986;DHT22;3533;51.246;6.850;2023-07-22T15:09:03;24.10;43.90
6986;DHT22;3533;51.246;6.850;2023-07-22T15:11:36;24.10;43.90
6986;DHT22;3533;51.246;6.850;2023-07-22T15:14:05;24.10;43.90
6986;DHT22;3533;51.246;6.850;2023-07-22T15:16:31;24.10;43.90
6986;DHT22;3533;51.246;6.850;2023-07-22T15:18:57;24.10;43.90
6986;DHT22;3533;51.246;6.850;2023-07-22T15:21:23;24.10;43.90
6986;DHT22;3533;51.246;6.850;2023-07-22T15:23:48;24.10;44.00
6986;DHT22;3533;51.246;6.850;2023-07-22T15:26:14;24.10;43.90
6986;DHT22;3533;51.246;6.850;2023-07-22T15:28:39;24.10;43.90
6986;DHT22;3533;51.246;6.850;2023-07-22T15:31:06;24.10;43.90
6986;DHT22;3533;51.246;6.850;2023-07-22T15:33:33;24.10;44.00
6986;DHT22;3533;51.246;6.850;2023-07-22T15:35:59;24.10;44.00
6986;DHT22;3533;51.246;6.850;2023-07-22T15:38:24;24.10;44.00
6986;DHT22;3533;51.246;6.850;2023-07-22T15:40:52;24.00;43.90
6986;DHT22;3533;51.246;6.850;2023-07-22T15:43:18;24.10;44.00
6986;DHT22;3533;51.246;6.850;2023-07-22T15:45:43;24.10;43.90
6986;DHT22;3533;51.246;6.850;2023-07-22T15:48:09;24.10;43.90
6986;DHT22;3533;51.246;6.850;2023-07-22T15:50:34;24.10;43.90
6986;DHT22;3533;51.246;6.850;2023-07-22T15:53:00;24.10;43.90
6986;DHT22;3533;51.246;6.850;2023-07-22T15:55:25;24.10;43.90
6986;DHT22;3533;51.246;6.850;2023-07-22T15:57:51;24.10;43.80
6986;DHT22;3533;51.246;6.850;2023-07-22T16:00:16;24.10;43.80
6986;DHT22;3533;51.246;6.850;2023-07-22T16:02:42;24.10;43.70
6986;DHT22;3533;51.246;6.850;2023-07-22T16:05:08;24.10;43.80
6986;DHT22;3533;51.246;6.850;2023-07-22T16:07:33;24.10;44.50
6986;DHT22;3533;51.246;6.850;2023-07-22T16:09:59;24.10;43.80
6986;DHT22;3533;51.246;6.850;2023-07-22T16:12:26;24.10;43.80
6986;DHT22;3533;51.246;6.850;2023-07-22T16:14:52;24.10;43.70
6986;DHT22;3533;51.246;6.850;2023-07-22T16:17:18;24.10;43.70